createdAt,value
2023-03-08T00:01:28.495Z,4.19
2023-03-08T00:03:58.229Z,4.10
2023-03-08T00:06:27.363Z,4.02
2023-03-08T00:09:01.273Z,3.93
2023-03-08T00:11:30.375Z,3.89
2023-03-08T00:13:59.475Z,3.85
2023-03-08T00:16:28.589Z,3.78
2023-03-08T00:18:57.560Z,3.73
2023-03-08T00:21:26.542Z,3.71
2023-03-08T00:23:57.381Z,3.69
2023-03-08T00:26:25.957Z,3.66
2023-03-08T00:28:54.541Z,3.65
2023-03-08T00:31:23.795Z,3.66
2023-03-08T00:33:55.705Z,3.66
2023-03-08T00:36:26.586Z,3.69
2023-03-08T00:38:56.660Z,3.73
2023-03-08T00:41:25.244Z,3.75
2023-03-08T00:43:54.027Z,3.81
2023-03-08T00:46:22.989Z,3.89
2023-03-08T00:48:53.978Z,3.92
2023-03-08T00:51:22.965Z,3.94
2023-03-08T00:53:55.844Z,3.98
2023-03-08T00:56:24.632Z,4.02
2023-03-08T00:58:53.316Z,4.11
2023-03-08T01:01:22.017Z,4.22
2023-03-08T01:03:51.769Z,4.25
2023-03-08T01:06:21.623Z,4.20
2023-03-08T01:08:50.830Z,4.08
2023-03-08T01:11:23.187Z,3.97
2023-03-08T01:13:51.469Z,3.86
2023-03-08T01:16:23.761Z,3.77
2023-03-08T01:18:53.257Z,3.68
2023-03-08T01:21:22.237Z,3.61
2023-03-08T01:23:51.010Z,3.57
2023-03-08T01:26:20.938Z,3.58
2023-03-08T01:28:49.622Z,3.62
2023-03-08T01:31:22.308Z,3.65
2023-03-08T01:33:54.162Z,3.63
2023-03-08T01:36:23.767Z,3.61
2023-03-08T01:38:56.158Z,3.60
2023-03-08T01:41:26.175Z,3.62
2023-03-08T01:43:58.122Z,3.66
2023-03-08T01:46:31.103Z,3.70
2023-03-08T01:49:27.596Z,3.68
2023-03-08T01:52:08.343Z,3.71
2023-03-08T01:54:47.141Z,3.73
2023-03-08T01:57:34.964Z,3.78
2023-03-08T02:00:11.860Z,3.87
2023-03-08T02:02:48.512Z,3.93
2023-03-08T02:05:18.836Z,3.99
2023-03-08T02:07:49.059Z,4.06
2023-03-08T02:10:18.052Z,4.10
2023-03-08T02:12:48.279Z,4.19
2023-03-08T02:15:18.300Z,4.29
2023-03-08T02:17:48.617Z,4.37
2023-03-08T02:20:31.635Z,4.48
2023-03-08T02:23:28.190Z,4.58
2023-03-08T02:26:02.207Z,4.68
2023-03-08T02:28:31.399Z,4.78
2023-03-08T02:31:00.274Z,4.90
2023-03-08T02:33:34.182Z,4.92
2023-03-08T02:36:03.123Z,4.96
2023-03-08T02:38:35.035Z,5.01
2023-03-08T02:41:04.336Z,5.02
2023-03-08T02:43:33.122Z,4.99
2023-03-08T02:46:02.015Z,5.02
2023-03-08T02:48:33.882Z,5.08
2023-03-08T02:51:02.761Z,5.14
2023-03-08T02:53:33.596Z,5.20
2023-03-08T02:56:02.283Z,5.27
2023-03-08T02:58:31.687Z,5.30
2023-03-08T03:01:00.694Z,5.26
2023-03-08T03:03:31.823Z,5.20
2023-03-08T03:06:00.841Z,5.16
2023-03-08T03:08:32.674Z,5.11
2023-03-08T03:11:01.977Z,5.06
2023-03-08T03:13:33.430Z,5.02
2023-03-08T03:16:06.269Z,5.00
2023-03-08T03:18:35.808Z,5.02
2023-03-08T03:21:05.428Z,5.06
2023-03-08T03:23:33.862Z,5.04
2023-03-08T03:26:07.800Z,5.06
2023-03-08T03:28:40.273Z,5.10
2023-03-08T03:31:10.253Z,5.10
2023-03-08T03:33:39.793Z,5.14
2023-03-08T03:36:10.329Z,5.17
2023-03-08T03:38:39.351Z,5.15
2023-03-08T03:41:12.615Z,5.15
2023-03-08T03:43:41.767Z,5.11
2023-03-08T03:46:12.680Z,5.11
2023-03-08T03:48:42.455Z,5.13
2023-03-08T03:51:13.499Z,5.16
2023-03-08T03:53:43.310Z,5.17
2023-03-08T03:56:15.387Z,5.12
2023-03-08T03:58:45.399Z,5.08
2023-03-08T04:01:15.728Z,5.03
2023-03-08T04:03:45.185Z,4.99
2023-03-08T04:06:15.240Z,5.00
2023-03-08T04:08:45.595Z,5.03
2023-03-08T04:11:18.859Z,5.07
2023-03-08T04:13:48.570Z,5.07
2023-03-08T04:16:21.291Z,5.06
2023-03-08T04:18:59.357Z,5.09
2023-03-08T04:21:28.457Z,5.11
2023-03-08T04:24:00.485Z,5.07
2023-03-08T04:26:30.227Z,5.02
2023-03-08T04:29:06.486Z,4.98
2023-03-08T04:31:37.634Z,5.00
2023-03-08T04:34:10.314Z,5.04
2023-03-08T04:36:39.298Z,5.05
2023-03-08T04:39:08.282Z,5.03
2023-03-08T04:41:42.002Z,5.03
2023-03-08T04:44:32.594Z,5.05
2023-03-08T04:47:02.835Z,5.04
2023-03-08T04:49:45.753Z,5.02
2023-03-08T04:52:15.238Z,5.00
2023-03-08T04:54:44.640Z,5.01
2023-03-08T04:57:21.035Z,5.03
2023-03-08T04:59:50.614Z,5.06
2023-03-08T05:02:19.953Z,5.10
2023-03-08T05:04:49.368Z,5.23
2023-03-08T05:07:19.541Z,5.30
2023-03-08T05:09:48.448Z,5.33
2023-03-08T05:12:17.142Z,5.38
2023-03-08T05:14:54.916Z,5.38
2023-03-08T05:17:26.261Z,5.38
2023-03-08T05:19:56.274Z,5.39
2023-03-08T05:22:31.000Z,5.40
2023-03-08T05:24:59.793Z,5.43
2023-03-08T05:27:32.293Z,5.47
2023-03-08T05:30:01.463Z,5.53
2023-03-08T05:32:32.710Z,5.55
2023-03-08T05:35:01.910Z,5.55
2023-03-08T05:37:34.277Z,5.60
2023-03-08T05:40:06.964Z,5.63
2023-03-08T05:42:39.308Z,5.63
2023-03-08T05:45:09.644Z,5.63
2023-03-08T05:47:40.092Z,5.63
2023-03-08T05:50:11.526Z,5.66
2023-03-08T05:52:42.975Z,5.69
2023-03-08T05:55:14.534Z,5.72
2023-03-08T05:57:43.949Z,5.77
2023-03-08T06:00:13.534Z,5.75
2023-03-08T06:02:46.110Z,5.74
2023-03-08T06:05:15.716Z,5.74
2023-03-08T06:07:45.012Z,5.77
2023-03-08T06:10:16.055Z,5.78
2023-03-08T06:12:45.251Z,5.84
2023-03-08T06:15:16.502Z,5.88
2023-03-08T06:17:49.287Z,5.90
2023-03-08T06:20:19.914Z,5.94
2023-03-08T06:22:50.873Z,5.96
2023-03-08T06:25:21.027Z,5.99
2023-03-08T06:27:50.781Z,6.01
2023-03-08T06:30:30.578Z,6.04
2023-03-08T06:33:01.152Z,6.06
2023-03-08T06:35:30.318Z,6.03
2023-03-08T06:38:02.115Z,6.05
2023-03-08T06:40:31.313Z,6.14
2023-03-08T06:43:01.763Z,6.25
2023-03-08T06:45:30.743Z,6.32
2023-03-08T06:48:04.336Z,6.35
2023-03-08T06:50:33.635Z,6.40
2023-03-08T06:53:02.935Z,6.47
2023-03-08T06:55:43.602Z,6.52
2023-03-08T06:58:12.697Z,6.56
2023-03-08T07:00:42.305Z,6.62
2023-03-08T07:03:14.065Z,6.65
2023-03-08T07:05:42.878Z,6.68
2023-03-08T07:08:12.845Z,6.73
2023-03-08T07:10:41.793Z,6.79
2023-03-08T07:13:12.282Z,6.87
2023-03-08T07:15:41.848Z,6.89
2023-03-08T07:18:12.840Z,6.94
2023-03-08T07:20:43.094Z,7.01
2023-03-08T07:23:12.143Z,7.09
2023-03-08T07:25:40.939Z,7.15
2023-03-08T07:28:10.130Z,7.20
2023-03-08T07:30:39.424Z,7.27
2023-03-08T07:33:11.851Z,7.35
2023-03-08T07:35:41.401Z,7.48
2023-03-08T07:38:14.390Z,7.55
2023-03-08T07:40:46.675Z,7.57
2023-03-08T07:43:15.654Z,7.63
2023-03-08T07:46:07.265Z,7.69
2023-03-08T07:48:37.109Z,7.76
2023-03-08T07:51:07.558Z,7.79
2023-03-08T07:53:40.005Z,7.80
2023-03-08T07:56:08.990Z,7.83
2023-03-08T07:58:38.239Z,7.84
2023-03-08T08:01:09.241Z,7.89
2023-03-08T08:03:38.827Z,7.91
2023-03-08T08:06:08.028Z,7.87
2023-03-08T08:08:36.947Z,7.94
2023-03-08T08:11:16.260Z,8.05
2023-03-08T08:13:49.908Z,8.07
2023-03-08T08:16:18.693Z,8.11
2023-03-08T08:18:47.419Z,8.18
2023-03-08T08:21:16.534Z,8.21
2023-03-08T08:23:45.306Z,8.19
2023-03-08T08:26:17.781Z,8.20
2023-03-08T08:28:47.080Z,8.21
2023-03-08T08:31:20.539Z,8.22
2023-03-08T08:33:49.987Z,8.27
2023-03-08T08:36:19.103Z,8.32
2023-03-08T08:38:48.051Z,8.37
2023-03-08T08:41:17.986Z,8.43
2023-03-08T08:43:46.999Z,8.55
2023-03-08T08:46:16.693Z,8.69
2023-03-08T08:48:45.279Z,8.77
2023-03-08T08:51:14.882Z,8.80
2023-03-08T08:53:44.489Z,8.83
2023-03-08T08:56:25.716Z,8.86
2023-03-08T08:59:02.441Z,8.95
2023-03-08T09:01:32.737Z,9.05
2023-03-08T09:04:18.272Z,9.15
2023-03-08T09:06:47.949Z,9.21
2023-03-08T09:09:18.073Z,9.31
2023-03-08T09:11:55.206Z,9.44
2023-03-08T09:14:26.085Z,9.56
2023-03-08T09:16:55.012Z,9.67
2023-03-08T09:19:24.174Z,9.75
2023-03-08T09:21:53.573Z,9.80
2023-03-08T09:24:22.469Z,9.90
2023-03-08T09:26:51.255Z,10.08
2023-03-08T09:29:19.886Z,10.26
2023-03-08T09:31:48.659Z,10.36
2023-03-08T09:34:18.851Z,10.40
2023-03-08T09:36:47.947Z,10.45
2023-03-08T09:39:21.453Z,10.51
2023-03-08T09:41:54.644Z,10.59
2023-03-08T09:44:43.834Z,10.69
2023-03-08T09:47:17.978Z,10.84
2023-03-08T09:49:47.466Z,10.98
2023-03-08T09:52:22.310Z,11.06
2023-03-08T09:54:51.610Z,11.07
2023-03-08T09:57:24.749Z,11.16
2023-03-08T10:00:01.000Z,11.36
2023-03-08T10:02:34.654Z,11.53
2023-03-08T10:05:13.194Z,11.70
2023-03-08T10:07:55.014Z,11.74
2023-03-08T10:10:36.820Z,11.71
2023-03-08T10:13:22.387Z,11.63
2023-03-08T10:15:51.588Z,11.47
2023-03-08T10:18:23.034Z,11.38
2023-03-08T10:20:51.945Z,11.32
2023-03-08T10:23:21.522Z,11.47
2023-03-08T10:25:50.725Z,11.78
2023-03-08T10:28:20.536Z,12.03
2023-03-08T10:30:53.556Z,12.09
2023-03-08T10:33:40.153Z,12.18
2023-03-08T10:36:13.225Z,12.20
2023-03-08T10:38:42.129Z,12.23
2023-03-08T10:41:13.162Z,12.25
2023-03-08T10:43:51.670Z,12.20
2023-03-08T10:46:21.778Z,12.36
2023-03-08T10:48:50.576Z,12.74
2023-03-08T10:51:20.635Z,13.15
2023-03-08T10:53:53.783Z,13.34
2023-03-08T10:56:39.577Z,13.15
2023-03-08T10:59:16.064Z,12.80
2023-03-08T11:01:49.232Z,12.53
2023-03-08T11:04:18.815Z,12.39
2023-03-08T11:06:47.427Z,12.50
2023-03-08T11:09:22.593Z,12.62
2023-03-08T11:11:51.958Z,12.55
2023-03-08T11:14:20.999Z,12.46
2023-03-08T11:17:02.025Z,12.64
2023-03-08T11:19:30.612Z,12.97
2023-03-08T11:22:11.993Z,13.37
2023-03-08T11:24:47.024Z,13.86
2023-03-08T11:27:28.209Z,14.37
2023-03-08T11:30:15.070Z,14.82
2023-03-08T11:32:50.056Z,15.03
2023-03-08T11:35:20.069Z,15.22
2023-03-08T11:37:57.762Z,15.49
2023-03-08T11:40:32.181Z,15.89
2023-03-08T11:43:09.978Z,16.19
2023-03-08T11:45:40.414Z,16.41
2023-03-08T11:48:22.721Z,16.55
2023-03-08T11:51:10.853Z,16.70
2023-03-08T11:53:40.617Z,16.89
2023-03-08T11:56:13.852Z,16.69
2023-03-08T11:58:55.646Z,16.04
2023-03-08T12:01:29.184Z,15.43
2023-03-08T12:04:06.063Z,15.23
2023-03-08T12:06:55.106Z,15.53
2023-03-08T12:09:59.748Z,15.89
2023-03-08T12:12:32.711Z,16.18
2023-03-08T12:15:08.417Z,16.34
2023-03-08T12:17:41.941Z,16.46
2023-03-08T12:20:14.375Z,16.60
2023-03-08T12:22:46.464Z,16.74
2023-03-08T12:25:18.350Z,16.76
2023-03-08T12:27:49.455Z,16.80
2023-03-08T12:30:27.798Z,16.92
2023-03-08T12:32:56.772Z,16.93
2023-03-08T12:35:30.147Z,16.93
2023-03-08T12:38:02.743Z,16.95
2023-03-08T12:40:36.326Z,16.80
2023-03-08T12:43:10.380Z,16.46
2023-03-08T12:45:39.704Z,16.17
2023-03-08T12:48:14.204Z,15.92
2023-03-08T12:50:44.761Z,15.63
2023-03-08T12:53:32.772Z,15.39
2023-03-08T12:56:02.982Z,15.20
2023-03-08T12:58:32.291Z,15.01
2023-03-08T13:01:02.539Z,14.87
2023-03-08T13:03:37.653Z,14.77
2023-03-08T13:06:16.681Z,14.75
2023-03-08T13:08:49.974Z,14.77
2023-03-08T13:11:19.628Z,14.75
2023-03-08T13:13:53.292Z,14.74
2023-03-08T13:16:29.204Z,14.76
2023-03-08T13:19:22.683Z,14.77
2023-03-08T13:21:58.910Z,14.79
2023-03-08T13:24:27.984Z,14.85
2023-03-08T13:27:18.367Z,14.77
2023-03-08T13:29:47.398Z,14.65
2023-03-08T13:32:18.557Z,14.49
2023-03-08T13:35:00.264Z,14.32
2023-03-08T13:37:36.657Z,14.24
2023-03-08T13:40:15.162Z,14.19
2023-03-08T13:42:54.988Z,14.21
2023-03-08T13:45:23.593Z,14.16
2023-03-08T13:47:52.893Z,14.12
2023-03-08T13:50:32.026Z,14.09
2023-03-08T13:53:01.544Z,14.00
2023-03-08T13:55:33.174Z,13.89
2023-03-08T13:58:02.429Z,13.79
2023-03-08T14:00:35.363Z,13.71
2023-03-08T14:03:06.848Z,13.63
2023-03-08T14:05:44.025Z,13.57
2023-03-08T14:08:25.287Z,13.51
2023-03-08T14:10:55.769Z,13.48
2023-03-08T14:13:27.677Z,13.45
2023-03-08T14:15:59.858Z,13.42
2023-03-08T14:18:34.410Z,13.39
2023-03-08T14:21:14.369Z,13.37
2023-03-08T14:23:47.804Z,13.36
2023-03-08T14:26:27.058Z,13.35
2023-03-08T14:29:10.338Z,13.33
2023-03-08T14:31:39.766Z,13.29
2023-03-08T14:34:18.183Z,13.27
2023-03-08T14:36:49.126Z,13.28
2023-03-08T14:39:19.035Z,13.31
2023-03-08T14:41:48.233Z,13.31
2023-03-08T14:44:21.875Z,13.28
2023-03-08T14:46:58.514Z,13.23
2023-03-08T14:49:28.838Z,13.18
2023-03-08T14:51:57.818Z,13.14
2023-03-08T14:54:33.088Z,13.12
2023-03-08T14:57:04.922Z,13.11
2023-03-08T14:59:34.115Z,13.09
2023-03-08T15:02:03.011Z,13.05
2023-03-08T15:04:31.725Z,13.01
2023-03-08T15:07:00.617Z,12.99
2023-03-08T15:09:30.390Z,12.99
2023-03-08T15:12:01.134Z,12.98
2023-03-08T15:14:30.835Z,12.95
2023-03-08T15:17:04.027Z,12.90
2023-03-08T15:19:33.120Z,12.87
2023-03-08T15:22:02.224Z,12.83
2023-03-08T15:24:33.465Z,12.79
2023-03-08T15:27:02.598Z,12.77
2023-03-08T15:29:32.673Z,12.74
2023-03-08T15:32:01.593Z,12.73
2023-03-08T15:34:30.870Z,12.70
2023-03-08T15:36:59.240Z,12.66
2023-03-08T15:39:27.515Z,12.61
2023-03-08T15:41:56.020Z,12.56
2023-03-08T15:44:24.208Z,12.50
2023-03-08T15:46:53.029Z,12.43
2023-03-08T15:49:21.758Z,12.38
2023-03-08T15:51:50.533Z,12.34
2023-03-08T15:54:19.225Z,12.33
2023-03-08T15:56:47.811Z,12.33
2023-03-08T15:59:16.380Z,12.30
2023-03-08T16:01:45.274Z,12.22
2023-03-08T16:04:14.069Z,12.13
2023-03-08T16:06:45.105Z,12.05
2023-03-08T16:09:13.477Z,11.97
2023-03-08T16:11:47.257Z,11.91
2023-03-08T16:14:18.966Z,11.85
2023-03-08T16:16:47.656Z,11.81
2023-03-08T16:19:18.487Z,11.78
2023-03-08T16:21:48.072Z,11.73
2023-03-08T16:24:16.760Z,11.68
2023-03-08T16:26:45.954Z,11.62
2023-03-08T16:29:14.847Z,11.56
2023-03-08T16:31:46.553Z,11.52
2023-03-08T16:34:15.711Z,11.54
2023-03-08T16:36:44.652Z,11.52
2023-03-08T16:39:14.100Z,11.52
2023-03-08T16:41:42.784Z,11.49
2023-03-08T16:44:31.948Z,11.48
2023-03-08T16:47:00.823Z,11.53
2023-03-08T16:49:30.060Z,11.58
2023-03-08T16:51:58.421Z,11.60
2023-03-08T16:54:26.993Z,11.61
2023-03-08T16:56:55.889Z,11.64
2023-03-08T16:59:24.259Z,11.67
2023-03-08T17:01:52.854Z,11.68
2023-03-08T17:04:22.899Z,11.68
2023-03-08T17:06:51.342Z,11.69
2023-03-08T17:09:20.436Z,11.68
2023-03-08T17:11:49.557Z,11.66
2023-03-08T17:14:19.853Z,11.64
2023-03-08T17:16:48.347Z,11.62
2023-03-08T17:19:17.430Z,11.60
2023-03-08T17:21:46.528Z,11.57
2023-03-08T17:24:15.825Z,11.56
2023-03-08T17:26:45.947Z,11.56
2023-03-08T17:29:14.959Z,11.54
2023-03-08T17:31:43.636Z,11.48
2023-03-08T17:34:13.093Z,11.43
2023-03-08T17:36:42.062Z,11.41
2023-03-08T17:39:14.392Z,11.41
2023-03-08T17:41:45.024Z,11.39
2023-03-08T17:44:14.628Z,11.39
2023-03-08T17:46:43.112Z,11.35
2023-03-08T17:49:13.437Z,11.30
2023-03-08T17:51:42.935Z,11.27
2023-03-08T17:54:12.423Z,11.26
2023-03-08T17:56:41.239Z,11.26
2023-03-08T17:59:13.104Z,11.23
2023-03-08T18:01:42.708Z,11.19
2023-03-08T18:04:11.537Z,11.12
2023-03-08T18:06:41.614Z,11.02
2023-03-08T18:09:11.734Z,10.95
2023-03-08T18:11:41.744Z,10.87
2023-03-08T18:14:11.864Z,10.80
2023-03-08T18:16:40.868Z,10.70
2023-03-08T18:19:10.475Z,10.58
2023-03-08T18:21:41.093Z,10.49
2023-03-08T18:24:11.737Z,10.41
2023-03-08T18:26:41.348Z,10.31
2023-03-08T18:29:11.966Z,10.26
2023-03-08T18:31:41.053Z,10.24
2023-03-08T18:34:10.252Z,10.23
2023-03-08T18:36:39.140Z,10.20
2023-03-08T18:39:08.845Z,10.23
2023-03-08T18:41:38.051Z,10.23
2023-03-08T18:44:10.666Z,10.24
2023-03-08T18:46:40.263Z,10.24
2023-03-08T18:49:11.162Z,10.23
2023-03-08T18:51:41.399Z,10.20
2023-03-08T18:54:17.781Z,10.19
2023-03-08T18:56:46.946Z,10.15
2023-03-08T18:59:15.738Z,10.09
2023-03-08T19:01:45.045Z,10.02
2023-03-08T19:04:14.748Z,9.96
2023-03-08T19:06:43.755Z,9.94
2023-03-08T19:09:13.656Z,9.94
2023-03-08T19:11:42.647Z,9.98
2023-03-08T19:14:11.661Z,10.01
2023-03-08T19:16:42.659Z,10.03
2023-03-08T19:19:12.670Z,10.06
2023-03-08T19:21:42.310Z,10.08
2023-03-08T19:24:16.396Z,10.11
2023-03-08T19:26:47.768Z,10.12
2023-03-08T19:29:17.478Z,10.12
2023-03-08T19:31:52.486Z,10.12
2023-03-08T19:34:23.677Z,10.13
2023-03-08T19:36:52.954Z,10.14
2023-03-08T19:39:23.075Z,10.14
2023-03-08T19:41:52.814Z,10.14
2023-03-08T19:44:21.796Z,10.11
2023-03-08T19:46:55.614Z,10.08
2023-03-08T19:49:25.908Z,10.05
2023-03-08T19:51:55.922Z,10.05
2023-03-08T19:54:25.649Z,10.05
2023-03-08T19:56:54.949Z,10.07
2023-03-08T19:59:32.175Z,10.05
2023-03-08T20:02:01.419Z,10.01
2023-03-08T20:04:30.725Z,9.97
2023-03-08T20:07:00.953Z,9.92
2023-03-08T20:09:30.035Z,9.87
2023-03-08T20:12:00.665Z,9.77
2023-03-08T20:14:30.988Z,9.68
2023-03-08T20:17:01.971Z,9.60
2023-03-08T20:19:37.279Z,9.54
2023-03-08T20:22:06.985Z,9.49
2023-03-08T20:24:36.582Z,9.47
2023-03-08T20:27:06.391Z,9.48
2023-03-08T20:29:35.342Z,9.49
2023-03-08T20:32:04.890Z,9.53
2023-03-08T20:34:34.400Z,9.61
2023-03-08T20:37:03.412Z,9.65
2023-03-08T20:39:33.404Z,9.65
2023-03-08T20:42:02.293Z,9.62
2023-03-08T20:44:31.393Z,9.63
2023-03-08T20:47:00.483Z,9.62
2023-03-08T20:49:29.990Z,9.61
2023-03-08T20:51:59.087Z,9.61
2023-03-08T20:54:32.798Z,9.62
2023-03-08T20:57:01.884Z,9.64
2023-03-08T20:59:30.774Z,9.65
2023-03-08T21:02:00.263Z,9.64
2023-03-08T21:04:30.092Z,9.60
2023-03-08T21:07:01.563Z,9.52
2023-03-08T21:09:30.746Z,9.39
2023-03-08T21:11:59.729Z,9.27
2023-03-08T21:14:29.421Z,9.18
2023-03-08T21:16:58.841Z,9.13
2023-03-08T21:19:27.744Z,9.11
2023-03-08T21:21:57.029Z,9.09
2023-03-08T21:24:25.621Z,9.04
2023-03-08T21:26:54.610Z,9.00
2023-03-08T21:29:25.542Z,8.95
2023-03-08T21:31:55.521Z,8.90
2023-03-08T21:34:25.063Z,8.87
2023-03-08T21:36:53.950Z,8.83
2023-03-08T21:39:22.943Z,8.81
2023-03-08T21:41:53.265Z,8.78
2023-03-08T21:44:22.000Z,8.85
2023-03-08T21:46:55.553Z,8.87
2023-03-08T21:49:27.415Z,8.85
2023-03-08T21:51:57.539Z,8.83
2023-03-08T21:54:28.268Z,8.78
2023-03-08T21:56:57.262Z,8.70
2023-03-08T21:59:27.876Z,8.59
2023-03-08T22:01:59.071Z,8.50
2023-03-08T22:04:28.030Z,8.44
2023-03-08T22:06:57.126Z,8.44
2023-03-08T22:09:29.518Z,8.46
2023-03-08T22:12:00.126Z,8.49
2023-03-08T22:14:29.006Z,8.48
2023-03-08T22:17:03.561Z,8.47
2023-03-08T22:19:32.324Z,8.44
2023-03-08T22:22:01.213Z,8.40
2023-03-08T22:24:32.989Z,8.37
2023-03-08T22:27:02.683Z,8.35
2023-03-08T22:29:31.783Z,8.30
2023-03-08T22:32:01.184Z,8.26
2023-03-08T22:34:29.967Z,8.22
2023-03-08T22:36:58.669Z,8.19
2023-03-08T22:39:28.464Z,8.16
2023-03-08T22:41:57.659Z,8.11
2023-03-08T22:44:26.454Z,8.11
2023-03-08T22:46:55.032Z,8.07
2023-03-08T22:49:23.614Z,8.07
2023-03-08T22:51:52.811Z,8.05
2023-03-08T22:54:22.223Z,7.99
2023-03-08T22:56:51.213Z,7.93
2023-03-08T22:59:19.997Z,7.87
2023-03-08T23:01:49.457Z,7.84
2023-03-08T23:04:18.645Z,7.82
2023-03-08T23:06:48.038Z,7.80
2023-03-08T23:09:17.357Z,7.83
2023-03-08T23:11:46.189Z,7.84
2023-03-08T23:14:16.614Z,7.83
2023-03-08T23:16:46.390Z,7.78
2023-03-08T23:19:16.241Z,7.70
2023-03-08T23:22:04.801Z,7.64
2023-03-08T23:24:34.907Z,7.62
2023-03-08T23:27:04.527Z,7.59
2023-03-08T23:29:33.200Z,7.54
2023-03-08T23:32:02.022Z,7.48
2023-03-08T23:34:31.898Z,7.43
2023-03-08T23:37:05.931Z,7.45
2023-03-08T23:39:36.848Z,7.53
2023-03-08T23:42:06.424Z,7.60
2023-03-08T23:44:37.806Z,7.68
2023-03-08T23:47:06.706Z,7.83
2023-03-08T23:49:35.478Z,7.76
2023-03-08T23:52:04.266Z,7.61
2023-03-08T23:54:36.132Z,7.69
2023-03-08T23:57:05.738Z,7.77
2023-03-08T23:59:34.729Z,7.81
